Time;durP1;ratioP1;P1;durP2;ratioP2;P2;SDS_P1;SDS_P2;PMS_P1;PMS_P2;Temp;Humidity;BMP_temperature;BMP_pressure;BME280_temperature;BME280_humidity;BME280_pressure;Samples;Min_cycle;Max_cycle;Signal;HPM_P1;HPM_P2
2023/09/23 00:00:37;;;;;;;7.07;2.47;;;12.40;99.90;;;;;;4881880;28;20211;-42
2023/09/23 00:03:04;;;;;;;5.68;2.85;;;12.40;99.90;;;;;;4856794;28;20368;-43
2023/09/23 00:05:32;;;;;;;2.72;2.22;;;12.40;99.90;;;;;;4881496;28;20293;-44
2023/09/23 00:07:58;;;;;;;5.22;2.40;;;12.40;99.90;;;;;;4880953;28;20473;-44
2023/09/23 00:10:24;;;;;;;4.53;2.47;;;12.50;99.90;;;;;;4879275;28;20430;-42
2023/09/23 00:12:50;;;;;;;6.55;2.67;;;12.50;99.90;;;;;;4872516;28;20899;-44
2023/09/23 00:15:16;;;;;;;4.15;3.10;;;12.40;99.90;;;;;;4847340;28;20285;-42
2023/09/23 00:17:45;;;;;;;4.05;2.63;;;12.50;99.90;;;;;;4881456;28;20227;-43
2023/09/23 00:20:16;;;;;;;4.03;2.65;;;12.50;99.90;;;;;;4847646;28;20470;-42
2023/09/23 00:22:46;;;;;;;3.38;2.65;;;12.40;99.90;;;;;;4864066;28;20482;-42
2023/09/23 00:25:13;;;;;;;4.03;2.75;;;12.50;99.90;;;;;;4863578;28;20797;-42
2023/09/23 00:27:41;;;;;;;4.57;2.90;;;12.40;99.90;;;;;;4880144;28;20347;-42
2023/09/23 00:30:07;;;;;;;4.32;2.65;;;12.40;99.90;;;;;;4862700;28;20049;-43
2023/09/23 00:32:34;;;;;;;6.07;2.75;;;12.40;99.90;;;;;;4880621;28;20480;-43
2023/09/23 00:35:01;;;;;;;2.83;2.45;;;12.30;99.90;;;;;;4848041;28;20430;-42
2023/09/23 00:37:27;;;;;;;3.95;2.95;;;12.30;99.90;;;;;;4862278;28;20347;-42
2023/09/23 00:39:53;;;;;;;5.30;2.67;;;12.30;99.90;;;;;;4880237;28;20458;-42
2023/09/23 00:42:19;;;;;;;3.47;2.28;;;12.30;99.90;;;;;;4883367;28;20463;-42
2023/09/23 00:44:45;;;;;;;4.38;2.50;;;12.30;99.90;;;;;;4865343;28;20457;-42
2023/09/23 00:47:15;;;;;;;4.00;2.33;;;12.30;99.90;;;;;;4862337;28;20332;-43
2023/09/23 00:49:45;;;;;;;2.53;1.67;;;12.30;99.90;;;;;;4862704;28;20305;-42
2023/09/23 00:52:15;;;;;;;3.30;2.30;;;12.30;99.90;;;;;;4862721;28;20960;-43
2023/09/23 00:54:45;;;;;;;3.80;2.20;;;12.30;99.90;;;;;;4862571;28;21147;-42
2023/09/23 00:57:12;;;;;;;4.82;1.77;;;12.30;99.90;;;;;;4862404;28;20486;-42
2023/09/23 00:59:40;;;;;;;3.25;1.77;;;12.30;99.90;;;;;;4862171;28;20410;-44
2023/09/23 01:02:06;;;;;;;3.30;2.10;;;12.30;99.90;;;;;;4872483;28;20538;-42
2023/09/23 01:04:32;;;;;;;4.18;2.33;;;12.30;99.90;;;;;;4863645;28;20049;-42
2023/09/23 01:07:00;;;;;;;2.50;1.92;;;12.30;99.90;;;;;;4864216;28;20332;-44
2023/09/23 01:09:27;;;;;;;5.35;2.10;;;12.30;99.90;;;;;;4845958;28;20938;-43
2023/09/23 01:11:53;;;;;;;3.90;2.40;;;12.20;99.90;;;;;;4865384;28;20875;-42
2023/09/23 01:14:21;;;;;;;5.57;2.63;;;12.20;99.90;;;;;;4867099;28;20041;-42
2023/09/23 01:16:51;;;;;;;3.67;2.83;;;12.10;99.90;;;;;;4861902;28;20544;-42
2023/09/23 01:19:25;;;;;;;6.22;2.72;;;12.10;99.90;;;;;;4865820;28;20470;-41
2023/09/23 01:21:50;;;;;;;3.85;2.95;;;12.00;99.90;;;;;;4863284;28;20270;-44
2023/09/23 01:24:17;;;;;;;4.20;3.13;;;12.00;99.90;;;;;;4845168;28;20587;-43
2023/09/23 01:26:51;;;;;;;3.92;3.08;;;11.90;99.90;;;;;;4879298;28;20041;-42
2023/09/23 01:29:18;;;;;;;4.15;3.75;;;11.90;99.90;;;;;;4862015;28;20931;-42
2023/09/23 01:32:10;;;;;;;6.38;4.20;;;11.80;99.90;;;;;;4862645;28;20332;-42
2023/09/23 01:34:36;;;;;;;6.38;4.38;;;11.70;99.90;;;;;;4864377;28;20418;-42
2023/09/23 01:37:02;;;;;;;5.35;4.50;;;11.70;99.90;;;;;;4861622;28;20459;-42
2023/09/23 01:39:28;;;;;;;7.63;5.00;;;11.60;99.90;;;;;;4845410;28;20597;-43
2023/09/23 01:41:54;;;;;;;8.73;6.03;;;11.60;99.90;;;;;;4862373;28;20347;-42
2023/09/23 01:44:20;;;;;;;9.43;6.57;;;11.50;99.90;;;;;;4866212;28;20511;-42
2023/09/23 01:46:46;;;;;;;10.20;7.20;;;11.50;99.90;;;;;;4880932;28;20525;-42
2023/09/23 01:49:12;;;;;;;9.95;8.38;;;11.50;99.90;;;;;;4881464;28;20835;-42
2023/09/23 01:51:38;;;;;;;8.57;7.63;;;11.50;99.90;;;;;;4879105;28;20472;-43
2023/09/23 01:54:04;;;;;;;8.98;8.02;;;11.40;99.90;;;;;;4861504;28;20963;-42
2023/09/23 01:56:34;;;;;;;10.18;8.57;;;11.40;99.90;;;;;;4863274;28;20285;-43
2023/09/23 01:58:59;;;;;;;10.38;8.93;;;11.40;99.90;;;;;;4861620;28;20418;-44
2023/09/23 02:01:26;;;;;;;9.05;8.15;;;11.40;99.90;;;;;;4858182;28;20514;-42
2023/09/23 02:03:51;;;;;;;12.70;9.20;;;11.40;99.90;;;;;;4855407;28;20300;-42
2023/09/23 02:06:17;;;;;;;9.45;8.48;;;11.40;99.90;;;;;;4878519;28;20365;-42
2023/09/23 02:08:43;;;;;;;10.73;8.20;;;11.30;99.90;;;;;;4863436;28;20080;-42
2023/09/23 02:11:09;;;;;;;9.40;8.40;;;11.30;99.90;;;;;;4845750;28;20342;-42
2023/09/23 02:13:40;;;;;;;8.50;7.63;;;11.30;99.90;;;;;;4861889;28;20347;-43
2023/09/23 02:16:06;;;;;;;10.40;8.38;;;11.30;99.90;;;;;;4862438;28;20867;-47
2023/09/23 02:18:35;;;;;;;10.60;8.75;;;11.30;99.90;;;;;;4879115;28;20365;-41
2023/09/23 02:21:00;;;;;;;10.00;8.15;;;11.20;99.90;;;;;;4862163;28;20529;-42
2023/09/23 02:23:26;;;;;;;9.30;8.27;;;11.20;99.90;;;;;;4861235;28;20510;-42
2023/09/23 02:25:52;;;;;;;9.82;8.32;;;11.20;99.90;;;;;;4861430;28;20435;-42
2023/09/23 02:28:18;;;;;;;8.82;7.93;;;11.20;99.90;;;;;;4880243;28;20340;-42
2023/09/23 02:30:44;;;;;;;11.40;8.68;;;11.20;99.90;;;;;;4865279;28;20383;-42
2023/09/23 02:33:10;;;;;;;9.85;8.13;;;11.20;99.90;;;;;;4880459;28;20962;-42
2023/09/23 02:35:35;;;;;;;10.63;8.73;;;11.10;99.90;;;;;;4880548;28;20208;-43
2023/09/23 02:38:01;;;;;;;12.45;8.93;;;11.10;99.90;;;;;;4878986;28;20591;-42
2023/09/23 02:40:27;;;;;;;12.35;8.82;;;11.10;99.90;;;;;;4845442;28;20481;-42
2023/09/23 02:42:53;;;;;;;11.07;9.48;;;11.00;99.90;;;;;;4865092;28;20300;-41
2023/09/23 02:45:23;;;;;;;10.23;9.23;;;11.00;99.90;;;;;;4865347;28;20088;-41
2023/09/23 02:47:49;;;;;;;10.00;8.98;;;11.00;99.90;;;;;;4879190;28;20045;-42
2023/09/23 02:50:17;;;;;;;10.85;9.32;;;11.00;99.90;;;;;;4861077;28;20809;-42
2023/09/23 02:52:46;;;;;;;11.00;9.00;;;10.90;99.90;;;;;;4879474;28;20525;-42
2023/09/23 02:55:15;;;;;;;11.40;9.25;;;10.80;99.90;;;;;;4881984;28;20235;-42
2023/09/23 02:57:45;;;;;;;10.77;8.88;;;10.80;99.90;;;;;;4844797;28;20336;-43
2023/09/23 03:00:24;;;;;;;9.88;8.70;;;10.80;99.90;;;;;;4845125;28;20344;-43
2023/09/23 03:02:57;;;;;;;12.07;9.85;;;10.80;99.90;;;;;;4836983;28;20046;-42
2023/09/23 03:05:31;;;;;;;12.55;10.93;;;10.80;99.90;;;;;;4860973;28;20325;-41
2023/09/23 03:07:58;;;;;;;13.02;11.23;;;10.70;99.90;;;;;;4860657;28;20298;-42
2023/09/23 03:10:32;;;;;;;12.40;10.45;;;10.70;99.90;;;;;;4863005;28;20527;-43
2023/09/23 03:13:05;;;;;;;12.35;10.60;;;10.70;99.90;;;;;;4849172;28;20491;-41
2023/09/23 03:15:44;;;;;;;14.20;11.40;;;10.70;99.90;;;;;;4879014;28;20196;-44
2023/09/23 03:18:10;;;;;;;14.98;12.00;;;10.60;99.90;;;;;;4878503;28;20515;-42
2023/09/23 03:20:37;;;;;;;19.88;12.30;;;10.60;99.90;;;;;;4861368;28;20365;-42
2023/09/23 03:23:04;;;;;;;16.15;14.00;;;10.60;99.90;;;;;;4878488;28;20372;-42
2023/09/23 03:25:30;;;;;;;16.80;13.57;;;10.60;99.90;;;;;;4879218;28;20379;-45
2023/09/23 03:27:57;;;;;;;15.55;13.65;;;10.60;99.90;;;;;;4863057;28;20049;-42
2023/09/23 03:30:23;;;;;;;14.63;13.13;;;10.50;99.90;;;;;;4848309;28;20351;-42
2023/09/23 03:32:49;;;;;;;15.93;14.35;;;10.50;99.90;;;;;;4878998;28;20621;-41
2023/09/23 03:35:17;;;;;;;17.90;16.00;;;10.50;99.90;;;;;;4878335;28;20398;-42
2023/09/23 03:37:47;;;;;;;16.88;14.88;;;10.60;99.90;;;;;;4878849;28;20385;-42
2023/09/23 03:40:15;;;;;;;18.05;16.30;;;10.60;99.90;;;;;;4844888;28;20336;-42
2023/09/23 03:42:41;;;;;;;18.23;14.90;;;10.60;99.90;;;;;;4864588;28;20327;-41
2023/09/23 03:45:10;;;;;;;18.08;16.15;;;10.60;99.90;;;;;;4878397;28;20924;-42
2023/09/23 03:47:37;;;;;;;21.33;17.80;;;10.70;99.90;;;;;;4879367;28;20543;-43
2023/09/23 03:50:03;;;;;;;19.63;17.63;;;10.70;99.90;;;;;;4848356;28;20533;-41
2023/09/23 03:52:29;;;;;;;18.75;16.52;;;10.70;99.90;;;;;;4863876;28;20473;-43
2023/09/23 03:54:57;;;;;;;21.17;16.60;;;10.80;99.90;;;;;;4883208;28;20492;-41
2023/09/23 03:57:22;;;;;;;18.95;16.98;;;10.80;99.90;;;;;;4865760;28;20300;-42
2023/09/23 03:59:49;;;;;;;18.13;16.30;;;10.80;99.90;;;;;;4882554;28;20486;-42
2023/09/23 04:02:15;;;;;;;16.92;15.32;;;10.90;99.90;;;;;;4871789;28;20447;-41
2023/09/23 04:04:40;;;;;;;19.35;17.35;;;10.90;99.90;;;;;;4864848;28;20829;-42
2023/09/23 04:07:07;;;;;;;20.80;16.75;;;10.90;99.90;;;;;;4863873;28;20359;-42
2023/09/23 04:09:33;;;;;;;18.38;16.52;;;10.90;99.90;;;;;;4883253;28;20348;-43
2023/09/23 04:12:04;;;;;;;16.00;14.30;;;10.90;99.90;;;;;;4875427;28;20462;-43
2023/09/23 04:14:30;;;;;;;16.15;14.50;;;10.90;99.90;;;;;;4868709;28;20207;-43
2023/09/23 04:16:55;;;;;;;16.00;14.40;;;11.00;99.90;;;;;;4863637;28;20121;-42
2023/09/23 04:19:21;;;;;;;15.77;14.15;;;10.90;99.90;;;;;;4863319;28;20898;-41
2023/09/23 04:21:47;;;;;;;13.55;12.18;;;11.00;99.90;;;;;;4881390;28;20468;-42
2023/09/23 04:24:12;;;;;;;11.63;10.63;;;10.90;99.90;;;;;;4882407;28;20636;-42
2023/09/23 04:26:38;;;;;;;12.77;10.68;;;10.90;99.90;;;;;;4864465;28;20342;-41
2023/09/23 04:29:04;;;;;;;11.38;9.85;;;10.90;99.90;;;;;;4863406;28;20438;-41
2023/09/23 04:31:30;;;;;;;10.85;9.75;;;10.90;99.90;;;;;;4865839;28;20583;-42
2023/09/23 04:33:55;;;;;;;11.50;9.35;;;10.80;99.90;;;;;;4863420;28;20045;-42
2023/09/23 04:36:21;;;;;;;9.88;8.98;;;10.80;99.90;;;;;;4848044;28;20188;-42
2023/09/23 04:38:48;;;;;;;10.70;9.75;;;10.70;99.90;;;;;;4862910;28;20427;-42
2023/09/23 04:41:13;;;;;;;11.13;9.93;;;10.70;99.90;;;;;;4848591;28;20180;-42
2023/09/23 04:43:41;;;;;;;10.45;9.43;;;10.60;99.90;;;;;;4867917;28;20440;-42
2023/09/23 04:46:06;;;;;;;11.10;10.00;;;10.50;99.90;;;;;;4882877;28;20757;-42
2023/09/23 04:48:32;;;;;;;11.57;10.38;;;10.50;99.90;;;;;;4864657;28;20431;-41
2023/09/23 04:50:58;;;;;;;11.35;10.18;;;10.50;99.90;;;;;;4865213;28;20547;-42
2023/09/23 04:53:24;;;;;;;11.75;10.52;;;10.40;99.90;;;;;;4847405;28;20390;-42
2023/09/23 04:55:50;;;;;;;12.18;10.88;;;10.40;99.90;;;;;;4862860;28;20850;-42
2023/09/23 04:58:16;;;;;;;13.65;10.98;;;10.30;99.90;;;;;;4849903;28;20494;-41
2023/09/23 05:00:42;;;;;;;13.10;11.45;;;10.30;99.90;;;;;;4863722;28;20455;-42
2023/09/23 05:03:08;;;;;;;11.60;10.38;;;10.30;99.90;;;;;;4871735;28;20379;-42
2023/09/23 05:05:34;;;;;;;11.43;10.15;;;10.30;99.90;;;;;;4860122;28;20323;-42
2023/09/23 05:08:02;;;;;;;12.27;10.98;;;10.40;99.90;;;;;;4881434;28;20330;-46
2023/09/23 05:10:28;;;;;;;11.48;10.38;;;10.30;99.90;;;;;;4880494;28;20402;-42
2023/09/23 05:12:54;;;;;;;14.00;11.95;;;10.30;99.90;;;;;;4866631;28;20450;-43
2023/09/23 05:15:19;;;;;;;13.32;10.88;;;10.30;99.90;;;;;;4880300;28;20049;-42
2023/09/23 05:17:45;;;;;;;13.82;12.43;;;10.40;99.90;;;;;;4862113;28;20375;-41
2023/09/23 05:20:19;;;;;;;13.98;12.48;;;10.40;99.90;;;;;;4862371;28;20376;-41
2023/09/23 05:22:45;;;;;;;14.85;13.30;;;10.50;99.90;;;;;;4862759;28;20382;-41
2023/09/23 05:25:14;;;;;;;17.35;13.15;;;10.50;99.90;;;;;;4879877;28;20518;-41
2023/09/23 05:27:40;;;;;;;16.60;14.55;;;10.50;99.90;;;;;;4882086;28;20354;-42
2023/09/23 05:30:10;;;;;;;17.42;15.02;;;10.60;99.90;;;;;;4880390;28;20426;-42
2023/09/23 05:32:39;;;;;;;21.73;16.33;;;10.60;99.90;;;;;;4881507;28;20349;-44
2023/09/23 05:35:09;;;;;;;20.90;18.27;;;10.70;99.90;;;;;;4862117;28;20157;-42
2023/09/23 05:37:39;;;;;;;23.73;18.52;;;10.70;99.90;;;;;;4864275;28;21046;-41
2023/09/23 05:40:18;;;;;;;25.83;18.77;;;10.80;99.90;;;;;;4869045;28;20631;-42
2023/09/23 05:42:45;;;;;;;24.23;19.80;;;10.90;99.90;;;;;;4865540;28;20418;-42
2023/09/23 05:45:11;;;;;;;26.88;20.63;;;10.90;99.90;;;;;;4861797;28;20409;-42
2023/09/23 05:47:36;;;;;;;28.23;22.05;;;11.00;99.90;;;;;;4862367;28;20791;-42
2023/09/23 05:50:03;;;;;;;34.00;24.55;;;11.10;99.90;;;;;;4861906;28;20495;-42
2023/09/23 05:52:30;;;;;;;34.47;22.98;;;11.10;99.90;;;;;;4879475;28;20487;-42
2023/09/23 05:54:56;;;;;;;29.58;22.30;;;11.30;99.90;;;;;;4879858;28;20132;-41
2023/09/23 05:57:22;;;;;;;28.75;22.30;;;11.30;99.90;;;;;;4880070;28;20398;-42
2023/09/23 05:59:47;;;;;;;30.10;23.15;;;11.40;99.90;;;;;;4861744;28;20848;-44
2023/09/23 06:02:13;;;;;;;31.40;22.60;;;11.50;99.90;;;;;;4872374;28;20085;-41
2023/09/23 06:04:38;;;;;;;34.05;22.45;;;11.50;99.90;;;;;;4845970;28;20383;-42
2023/09/23 06:07:05;;;;;;;31.80;23.10;;;11.50;99.90;;;;;;4863300;28;20338;-41
2023/09/23 06:09:30;;;;;;;30.85;21.63;;;11.50;99.90;;;;;;4880118;28;20359;-42
2023/09/23 06:11:56;;;;;;;31.17;23.45;;;11.60;99.90;;;;;;4878636;28;20600;-41
2023/09/23 06:14:21;;;;;;;26.90;21.52;;;11.60;99.90;;;;;;4879402;28;20504;-43
2023/09/23 06:16:50;;;;;;;28.60;23.67;;;11.60;99.90;;;;;;4878776;28;20389;-42
2023/09/23 06:19:16;;;;;;;31.83;23.75;;;11.60;99.90;;;;;;4868072;28;20320;-42
2023/09/23 06:21:41;;;;;;;34.20;23.75;;;11.50;99.90;;;;;;4857832;28;21015;-42
2023/09/23 06:24:10;;;;;;;31.42;23.73;;;11.50;99.90;;;;;;4879588;28;20152;-41
2023/09/23 06:26:37;;;;;;;36.95;24.63;;;11.60;99.90;;;;;;4861402;28;20366;-42
2023/09/23 06:29:04;;;;;;;33.35;25.00;;;11.60;99.90;;;;;;4866034;28;20560;-42
2023/09/23 06:31:30;;;;;;;36.88;25.40;;;11.80;99.90;;;;;;4846205;28;20802;-41
2023/09/23 06:33:56;;;;;;;34.28;25.27;;;12.40;99.90;;;;;;4848618;28;20837;-42
2023/09/23 06:36:21;;;;;;;27.95;21.75;;;13.10;99.90;;;;;;4860513;28;20313;-42
2023/09/23 06:38:47;;;;;;;24.10;20.92;;;13.60;99.90;;;;;;4860951;28;20777;-43
2023/09/23 06:41:13;;;;;;;20.73;18.52;;;13.80;99.90;;;;;;4861718;28;20136;-42
2023/09/23 06:43:38;;;;;;;21.67;18.40;;;13.80;99.90;;;;;;4868304;28;20896;-43
2023/09/23 06:46:04;;;;;;;19.52;16.73;;;13.60;99.90;;;;;;4879049;28;20427;-42
2023/09/23 06:48:30;;;;;;;21.48;17.17;;;13.60;99.90;;;;;;4861458;28;20499;-42
2023/09/23 06:50:56;;;;;;;18.60;16.55;;;13.40;99.90;;;;;;4845182;28;20053;-42
2023/09/23 06:53:22;;;;;;;21.73;17.45;;;13.40;99.90;;;;;;4866030;28;20734;-43
2023/09/23 06:55:48;;;;;;;21.90;17.23;;;13.30;99.90;;;;;;4858670;28;20490;-43
2023/09/23 06:58:13;;;;;;;24.15;17.63;;;13.20;99.90;;;;;;4878598;28;20625;-42
2023/09/23 07:00:39;;;;;;;20.95;16.20;;;13.20;99.90;;;;;;4878916;28;20369;-42
2023/09/23 07:03:04;;;;;;;19.17;16.60;;;13.10;99.90;;;;;;4845070;28;20586;-42
2023/09/23 07:05:30;;;;;;;18.75;16.75;;;13.20;99.90;;;;;;4862742;28;20467;-43
2023/09/23 07:07:55;;;;;;;19.65;16.50;;;13.60;99.90;;;;;;4878767;28;20127;-42
2023/09/23 07:10:21;;;;;;;17.63;15.73;;;14.10;99.90;;;;;;4878890;28;20911;-43
2023/09/23 07:12:47;;;;;;;17.13;14.38;;;14.50;99.90;;;;;;4880421;28;20463;-43
2023/09/23 07:15:13;;;;;;;14.80;13.27;;;14.90;99.90;;;;;;4861162;28;20619;-43
2023/09/23 07:17:39;;;;;;;16.08;12.70;;;15.10;99.90;;;;;;4877993;28;20418;-42
2023/09/23 07:20:05;;;;;;;13.13;11.13;;;15.30;99.90;;;;;;4860147;28;20390;-44
2023/09/23 07:22:30;;;;;;;13.00;11.23;;;15.10;99.90;;;;;;4879851;28;20524;-44
2023/09/23 07:24:56;;;;;;;12.73;10.70;;;15.20;99.90;;;;;;4848700;28;20346;-43
2023/09/23 07:27:24;;;;;;;11.50;10.10;;;15.10;99.90;;;;;;4882615;28;21076;-42
2023/09/23 07:29:49;;;;;;;10.43;9.43;;;15.00;99.90;;;;;;4883272;28;20060;-44
2023/09/23 07:32:15;;;;;;;11.32;9.70;;;14.90;99.90;;;;;;4853538;28;20887;-42
2023/09/23 07:34:41;;;;;;;10.82;9.23;;;14.80;99.90;;;;;;4863927;28;21110;-42
2023/09/23 07:37:08;;;;;;;11.05;9.27;;;14.80;99.90;;;;;;4880048;28;20256;-43
2023/09/23 07:39:33;;;;;;;11.05;9.93;;;14.80;99.90;;;;;;4866113;28;20911;-42
2023/09/23 07:41:59;;;;;;;13.40;11.23;;;14.90;99.90;;;;;;4880750;28;20497;-43
2023/09/23 07:44:24;;;;;;;12.18;10.68;;;15.10;99.90;;;;;;4896976;28;20341;-44
2023/09/23 07:46:50;;;;;;;11.65;10.48;;;15.30;99.90;;;;;;4876146;28;20999;-43
2023/09/23 07:49:16;;;;;;;15.38;12.02;;;15.40;99.90;;;;;;4864238;28;20202;-42
2023/09/23 07:51:42;;;;;;;17.13;13.18;;;15.60;99.90;;;;;;4880916;28;20405;-42
2023/09/23 07:54:07;;;;;;;15.80;12.98;;;15.70;99.90;;;;;;4866509;28;20049;-42
2023/09/23 07:56:33;;;;;;;15.93;12.52;;;15.80;99.90;;;;;;4879697;28;20699;-43
2023/09/23 07:58:58;;;;;;;13.48;10.63;;;15.90;99.90;;;;;;4880562;28;20405;-43
2023/09/23 08:01:24;;;;;;;13.48;11.80;;;15.90;99.90;;;;;;4863713;28;20247;-45
2023/09/23 08:03:51;;;;;;;15.88;9.80;;;15.90;99.90;;;;;;4879611;28;20380;-43
2023/09/23 08:06:16;;;;;;;11.68;9.70;;;16.00;99.90;;;;;;4882011;28;20304;-44
2023/09/23 08:08:42;;;;;;;11.95;8.60;;;16.10;99.90;;;;;;4880432;28;21028;-43
2023/09/23 08:11:07;;;;;;;10.50;8.65;;;16.20;99.90;;;;;;4882831;28;20049;-42
2023/09/23 08:13:33;;;;;;;10.75;9.65;;;16.10;99.90;;;;;;4875355;28;20443;-42
2023/09/23 08:15:59;;;;;;;10.45;9.48;;;16.20;99.90;;;;;;4863434;28;20942;-43
2023/09/23 08:18:25;;;;;;;10.18;9.10;;;16.40;99.90;;;;;;4882478;28;20477;-43
2023/09/23 08:20:57;;;;;;;10.40;9.30;;;16.40;99.90;;;;;;4882431;28;20325;-42
2023/09/23 08:23:23;;;;;;;10.45;8.50;;;16.30;99.90;;;;;;4863916;28;20339;-42
2023/09/23 08:25:48;;;;;;;8.30;7.50;;;16.40;99.90;;;;;;4868460;28;20308;-45
2023/09/23 08:28:14;;;;;;;11.10;8.10;;;16.50;99.90;;;;;;4882024;28;20608;-43
2023/09/23 08:30:43;;;;;;;11.15;6.93;;;16.50;99.90;;;;;;4863922;28;20542;-43
2023/09/23 08:33:09;;;;;;;10.23;6.78;;;16.50;99.90;;;;;;4880476;28;20909;-43
2023/09/23 08:35:36;;;;;;;9.77;6.70;;;16.50;99.90;;;;;;4847234;28;20417;-44
2023/09/23 08:38:02;;;;;;;8.65;5.53;;;16.40;99.90;;;;;;4863064;28;20092;-42
2023/09/23 08:40:34;;;;;;;9.65;6.00;;;16.50;99.90;;;;;;4862967;28;20454;-44
2023/09/23 08:43:05;;;;;;;9.57;6.28;;;16.50;99.90;;;;;;4864852;28;20585;-45
2023/09/23 08:45:32;;;;;;;8.20;6.45;;;16.60;99.90;;;;;;4880793;28;20089;-44
2023/09/23 08:48:03;;;;;;;8.40;5.90;;;16.50;99.90;;;;;;4862594;28;20411;-44
2023/09/23 08:50:30;;;;;;;7.20;6.10;;;16.60;99.90;;;;;;4863179;28;20386;-43
2023/09/23 08:52:58;;;;;;;7.65;5.93;;;16.70;99.90;;;;;;4875892;28;20137;-43
2023/09/23 08:55:25;;;;;;;6.28;4.97;;;16.80;99.90;;;;;;4861286;28;20308;-43
2023/09/23 08:57:51;;;;;;;7.43;5.05;;;16.80;99.90;;;;;;4863170;28;20418;-44
2023/09/23 09:00:18;;;;;;;6.40;5.32;;;16.90;99.90;;;;;;4881607;28;20403;-43
2023/09/23 09:02:44;;;;;;;6.95;5.50;;;17.00;99.90;;;;;;4863689;28;20061;-42
2023/09/23 09:05:10;;;;;;;8.18;6.07;;;17.10;99.90;;;;;;4858617;28;20400;-42
2023/09/23 09:07:38;;;;;;;8.65;5.63;;;17.10;99.90;;;;;;4864382;28;20042;-43
2023/09/23 09:10:04;;;;;;;9.95;5.38;;;17.10;99.90;;;;;;4883446;28;20069;-44
2023/09/23 09:12:34;;;;;;;9.07;6.13;;;17.20;99.90;;;;;;4884242;28;21004;-44
2023/09/23 09:15:00;;;;;;;7.15;5.55;;;17.50;99.90;;;;;;4870577;28;20046;-44
2023/09/23 09:17:26;;;;;;;6.72;5.90;;;17.70;99.90;;;;;;4846446;28;20061;-43
2023/09/23 09:19:51;;;;;;;6.82;5.07;;;17.60;99.90;;;;;;4845200;28;20773;-43
2023/09/23 09:22:19;;;;;;;8.27;5.22;;;17.40;99.90;;;;;;4858370;28;20408;-44
2023/09/23 09:24:46;;;;;;;8.00;5.32;;;17.30;99.90;;;;;;4872239;28;20460;-43
2023/09/23 09:27:14;;;;;;;10.98;5.88;;;17.00;99.90;;;;;;4848674;28;20539;-43
2023/09/23 09:29:41;;;;;;;8.85;5.70;;;16.80;99.90;;;;;;4869328;28;20372;-43
2023/09/23 09:32:09;;;;;;;8.15;5.40;;;16.80;99.90;;;;;;4883249;28;20338;-44
2023/09/23 09:34:46;;;;;;;9.25;5.93;;;16.60;99.90;;;;;;4862521;28;20347;-44
2023/09/23 09:37:16;;;;;;;9.85;6.18;;;16.60;99.90;;;;;;4879599;28;20457;-44
2023/09/23 09:39:53;;;;;;;6.05;5.32;;;16.60;99.90;;;;;;4862137;28;20482;-43
2023/09/23 09:42:30;;;;;;;9.07;5.72;;;16.80;99.90;;;;;;4882123;28;21054;-43
2023/09/23 09:44:57;;;;;;;7.53;4.47;;;17.00;99.90;;;;;;4880513;28;20394;-43
2023/09/23 09:47:23;;;;;;;8.10;4.20;;;16.90;99.90;;;;;;4862210;28;20539;-44
2023/09/23 09:49:54;;;;;;;7.60;4.72;;;17.00;99.90;;;;;;4881951;28;20450;-44
2023/09/23 09:52:26;;;;;;;6.07;4.95;;;17.10;99.90;;;;;;4861973;28;20057;-44
2023/09/23 09:54:54;;;;;;;6.30;4.53;;;17.20;99.90;;;;;;4850062;28;20691;-43
2023/09/23 09:57:28;;;;;;;5.53;3.70;;;17.30;99.90;;;;;;4889585;28;20077;-45
2023/09/23 09:59:59;;;;;;;5.80;3.63;;;17.50;99.90;;;;;;4982187;28;20323;-44
2023/09/23 10:02:26;;;;;;;8.05;3.65;;;17.50;99.90;;;;;;4999367;28;20037;-43
2023/09/23 10:04:53;;;;;;;7.72;4.63;;;17.60;99.90;;;;;;4992715;28;20045;-43
2023/09/23 10:07:22;;;;;;;7.97;3.15;;;17.50;99.90;;;;;;4999365;28;20038;-45
2023/09/23 10:09:55;;;;;;;7.63;3.75;;;17.40;99.90;;;;;;4981949;28;20062;-45
2023/09/23 10:12:25;;;;;;;;;;;17.40;99.90;;;;;;5000368;28;20084;-43
2023/09/23 10:14:54;;;;;;;5.65;2.50;;;17.40;99.90;;;;;;4965526;28;20388;-43
2023/09/23 10:17:36;;;;;;;6.95;2.85;;;17.50;99.90;;;;;;4999730;28;20492;-44
2023/09/23 10:20:08;;;;;;;8.32;2.63;;;17.60;99.90;;;;;;4981860;28;20060;-43
2023/09/23 10:22:33;;;;;;;7.10;2.30;;;17.60;99.90;;;;;;4999956;28;20149;-43
2023/09/23 10:25:06;;;;;;;6.78;2.70;;;17.70;99.90;;;;;;4998833;28;20048;-43
2023/09/23 10:27:32;;;;;;;5.97;2.42;;;17.80;99.90;;;;;;5002666;28;20519;-44
2023/09/23 10:30:00;;;;;;;5.07;2.83;;;17.80;99.90;;;;;;5014156;28;20049;-44
2023/09/23 10:32:26;;;;;;;6.60;2.50;;;17.90;99.90;;;;;;4982185;28;20141;-44
2023/09/23 10:34:55;;;;;;;4.78;2.42;;;17.80;99.90;;;;;;4965776;28;20935;-44
2023/09/23 10:37:32;;;;;;;7.15;2.20;;;17.90;99.90;;;;;;4999738;28;20809;-43
2023/09/23 10:40:11;;;;;;;6.00;2.30;;;18.00;99.90;;;;;;4998924;28;20100;-43
2023/09/23 10:42:38;;;;;;;7.07;2.22;;;18.20;99.90;;;;;;4994963;28;20625;-45
2023/09/23 10:45:05;;;;;;;7.63;2.30;;;18.30;99.90;;;;;;4999837;28;20096;-46
2023/09/23 10:47:31;;;;;;;6.90;2.65;;;18.20;99.90;;;;;;4999753;28;20514;-43
2023/09/23 10:49:57;;;;;;;5.10;2.20;;;18.00;99.90;;;;;;4982550;28;20049;-45
2023/09/23 10:52:22;;;;;;;4.55;2.35;;;17.90;99.90;;;;;;4999339;28;20670;-44
2023/09/23 10:54:48;;;;;;;4.05;2.33;;;17.80;99.90;;;;;;4999816;28;20096;-44
2023/09/23 10:57:14;;;;;;;5.88;2.35;;;17.70;99.90;;;;;;4999417;28;20041;-45
2023/09/23 10:59:43;;;;;;;10.30;2.45;;;17.70;99.90;;;;;;5000307;28;20169;-43
2023/09/23 11:02:10;;;;;;;5.65;2.25;;;17.90;99.90;;;;;;4993733;28;20061;-44
2023/09/23 11:04:35;;;;;;;3.08;1.70;;;18.20;99.90;;;;;;4998657;28;20077;-45
2023/09/23 11:07:02;;;;;;;4.07;1.65;;;18.30;99.90;;;;;;5000038;28;20117;-44
2023/09/23 11:09:28;;;;;;;5.78;1.67;;;18.10;99.90;;;;;;4978833;28;20070;-44
2023/09/23 11:11:54;;;;;;;11.00;2.38;;;18.00;99.90;;;;;;4967547;28;20405;-45
2023/09/23 11:14:23;;;;;;;17.85;3.70;;;17.80;99.90;;;;;;4978476;28;20081;-43
2023/09/23 11:16:50;;;;;;;5.50;2.17;;;17.40;99.90;;;;;;4976877;28;20050;-43
2023/09/23 11:19:17;;;;;;;6.72;2.08;;;16.90;99.90;;;;;;4980492;28;20053;-44
2023/09/23 11:21:46;;;;;;;3.08;2.03;;;16.80;99.90;;;;;;4979146;28;20042;-44
2023/09/23 11:24:13;;;;;;;2.97;1.20;;;16.50;99.90;;;;;;4979115;28;20101;-44
2023/09/23 11:26:42;;;;;;;2.03;1.20;;;16.30;99.90;;;;;;4979861;28;20332;-44
2023/09/23 11:29:08;;;;;;;4.57;1.70;;;16.20;99.90;;;;;;4979843;28;20085;-43
2023/09/23 11:31:34;;;;;;;3.72;1.70;;;16.00;99.90;;;;;;4978517;28;20053;-44
2023/09/23 11:33:59;;;;;;;7.63;2.58;;;15.90;99.90;;;;;;4980555;28;20097;-43
2023/09/23 11:36:25;;;;;;;5.88;2.42;;;15.90;99.90;;;;;;4979438;28;20042;-44
2023/09/23 11:38:51;;;;;;;7.70;2.67;;;15.90;99.90;;;;;;4979911;28;20399;-43
2023/09/23 11:41:17;;;;;;;4.40;2.63;;;16.00;99.90;;;;;;4979540;28;20577;-43
2023/09/23 11:43:43;;;;;;;4.15;2.35;;;16.10;99.90;;;;;;4982862;28;20049;-44
2023/09/23 11:46:08;;;;;;;5.45;2.53;;;16.30;99.90;;;;;;4979198;28;20485;-43
2023/09/23 11:48:35;;;;;;;3.75;1.90;;;16.50;99.90;;;;;;4979677;28;20189;-44
2023/09/23 11:51:01;;;;;;;4.18;2.30;;;16.80;99.90;;;;;;4977378;28;20074;-43
2023/09/23 11:53:27;;;;;;;3.60;1.80;;;17.10;99.90;;;;;;4974957;28;20042;-46
2023/09/23 11:55:53;;;;;;;3.97;1.60;;;17.30;99.90;;;;;;4964014;28;20125;-45
2023/09/23 11:58:23;;;;;;;8.32;2.10;;;17.40;99.90;;;;;;4975581;28;20372;-43
2023/09/23 12:00:48;;;;;;;4.60;1.67;;;17.40;99.90;;;;;;4975298;28;20046;-44
2023/09/23 12:03:14;;;;;;;3.13;1.70;;;17.30;99.90;;;;;;4970113;28;20121;-44
2023/09/23 12:05:41;;;;;;;3.70;1.70;;;17.30;99.90;;;;;;4977476;28;20513;-43
2023/09/23 12:08:10;;;;;;;3.47;1.50;;;17.20;99.90;;;;;;4978057;28;20184;-43
2023/09/23 12:10:36;;;;;;;5.78;1.75;;;17.30;99.90;;;;;;4994654;28;20532;-44
2023/09/23 12:13:02;;;;;;;2.95;1.45;;;17.40;99.90;;;;;;4993916;28;20068;-44
2023/09/23 12:15:29;;;;;;;2.88;1.60;;;17.40;99.90;;;;;;5002434;28;20107;-45
2023/09/23 12:17:55;;;;;;;2.75;1.38;;;17.40;99.90;;;;;;4981759;28;20063;-43
2023/09/23 12:20:22;;;;;;;4.45;1.80;;;17.30;99.90;;;;;;5005034;28;20060;-43
2023/09/23 12:22:48;;;;;;;5.70;1.88;;;17.30;99.90;;;;;;4976697;28;20539;-43
2023/09/23 12:25:15;;;;;;;3.28;2.03;;;17.20;99.90;;;;;;5001813;28;20401;-47
2023/09/23 12:27:40;;;;;;;3.75;1.67;;;17.20;99.90;;;;;;5001714;28;20056;-45
2023/09/23 12:30:07;;;;;;;6.47;1.63;;;17.30;99.90;;;;;;4999854;28;20401;-44
2023/09/23 12:32:33;;;;;;;3.00;1.35;;;17.40;99.90;;;;;;5000160;28;20045;-43
2023/09/23 12:34:59;;;;;;;4.53;2.13;;;17.40;99.90;;;;;;5000463;28;20413;-45
2023/09/23 12:37:27;;;;;;;3.15;2.00;;;17.60;99.90;;;;;;5001481;28;20095;-45